sensor_id;sensor_type;location;lat;lon;timestamp;P1;durP1;ratioP1;P2;durP2;ratioP2
41275;SDS011;27010;47.718;12.912;2023-12-04T00:02:07;1.67;;;1.10;;
41275;SDS011;27010;47.718;12.912;2023-12-04T00:05:10;0.80;;;0.70;;
41275;SDS011;27010;47.718;12.912;2023-12-04T00:08:12;3.38;;;2.10;;
41275;SDS011;27010;47.718;12.912;2023-12-04T00:11:14;1.90;;;1.43;;
41275;SDS011;27010;47.718;12.912;2023-12-04T00:14:17;1.87;;;1.27;;
41275;SDS011;27010;47.718;12.912;2023-12-04T00:17:19;0.80;;;0.70;;
41275;SDS011;27010;47.718;12.912;2023-12-04T00:20:22;1.67;;;1.13;;
41275;SDS011;27010;47.718;12.912;2023-12-04T00:23:25;1.40;;;0.97;;
41275;SDS011;27010;47.718;12.912;2023-12-04T00:26:28;0.80;;;0.80;;
41275;SDS011;27010;47.718;12.912;2023-12-04T00:29:31;2.07;;;1.10;;
41275;SDS011;27010;47.718;12.912;2023-12-04T00:32:34;2.20;;;1.50;;
41275;SDS011;27010;47.718;12.912;2023-12-04T00:35:37;1.50;;;1.40;;
41275;SDS011;27010;47.718;12.912;2023-12-04T00:38:39;1.30;;;0.90;;
41275;SDS011;27010;47.718;12.912;2023-12-04T00:41:41;1.40;;;0.60;;
41275;SDS011;27010;47.718;12.912;2023-12-04T00:44:44;1.83;;;1.17;;
41275;SDS011;27010;47.718;12.912;2023-12-04T00:47:46;2.93;;;1.60;;
41275;SDS011;27010;47.718;12.912;2023-12-04T00:50:50;1.43;;;1.00;;
41275;SDS011;27010;47.718;12.912;2023-12-04T00:53:53;1.80;;;1.10;;
41275;SDS011;27010;47.718;12.912;2023-12-04T00:56:55;1.40;;;0.60;;
41275;SDS011;27010;47.718;12.912;2023-12-04T00:59:57;1.70;;;0.97;;
41275;SDS011;27010;47.718;12.912;2023-12-04T01:03:00;0.70;;;0.70;;
41275;SDS011;27010;47.718;12.912;2023-12-04T01:06:02;1.10;;;1.00;;
41275;SDS011;27010;47.718;12.912;2023-12-04T01:09:05;0.80;;;0.67;;
41275;SDS011;27010;47.718;12.912;2023-12-04T01:12:07;1.50;;;1.00;;
41275;SDS011;27010;47.718;12.912;2023-12-04T01:15:09;1.93;;;1.63;;
41275;SDS011;27010;47.718;12.912;2023-12-04T01:18:11;1.93;;;0.60;;
41275;SDS011;27010;47.718;12.912;2023-12-04T01:21:14;1.17;;;1.03;;
41275;SDS011;27010;47.718;12.912;2023-12-04T01:24:16;1.40;;;1.03;;
41275;SDS011;27010;47.718;12.912;2023-12-04T01:27:18;1.80;;;0.73;;
41275;SDS011;27010;47.718;12.912;2023-12-04T01:30:20;1.63;;;0.90;;
41275;SDS011;27010;47.718;12.912;2023-12-04T01:33:22;1.83;;;1.40;;
41275;SDS011;27010;47.718;12.912;2023-12-04T01:36:25;1.73;;;0.93;;
41275;SDS011;27010;47.718;12.912;2023-12-04T01:39:28;2.73;;;1.57;;
41275;SDS011;27010;47.718;12.912;2023-12-04T01:42:31;2.60;;;1.50;;
41275;SDS011;27010;47.718;12.912;2023-12-04T01:45:34;0.83;;;0.60;;
41275;SDS011;27010;47.718;12.912;2023-12-04T01:48:36;1.00;;;0.70;;
41275;SDS011;27010;47.718;12.912;2023-12-04T01:51:39;2.47;;;1.40;;
41275;SDS011;27010;47.718;12.912;2023-12-04T01:54:42;1.43;;;1.03;;
41275;SDS011;27010;47.718;12.912;2023-12-04T01:57:45;1.50;;;0.93;;
41275;SDS011;27010;47.718;12.912;2023-12-04T02:00:47;2.10;;;1.40;;
41275;SDS011;27010;47.718;12.912;2023-12-04T02:03:50;2.17;;;1.63;;
41275;SDS011;27010;47.718;12.912;2023-12-04T02:06:53;2.97;;;1.80;;
41275;SDS011;27010;47.718;12.912;2023-12-04T02:09:56;3.23;;;1.70;;
41275;SDS011;27010;47.718;12.912;2023-12-04T02:12:59;2.07;;;1.70;;
41275;SDS011;27010;47.718;12.912;2023-12-04T02:16:09;1.43;;;0.93;;
41275;SDS011;27010;47.718;12.912;2023-12-04T02:19:12;1.50;;;1.10;;
41275;SDS011;27010;47.718;12.912;2023-12-04T02:22:15;1.60;;;1.20;;
41275;SDS011;27010;47.718;12.912;2023-12-04T02:25:20;1.40;;;1.07;;
41275;SDS011;27010;47.718;12.912;2023-12-04T02:28:36;1.00;;;0.87;;
41275;SDS011;27010;47.718;12.912;2023-12-04T02:31:39;4.83;;;1.30;;
41275;SDS011;27010;47.718;12.912;2023-12-04T02:34:43;1.73;;;1.10;;
41275;SDS011;27010;47.718;12.912;2023-12-04T02:37:47;2.10;;;1.07;;
41275;SDS011;27010;47.718;12.912;2023-12-04T02:40:51;1.33;;;0.90;;
41275;SDS011;27010;47.718;12.912;2023-12-04T02:43:54;0.93;;;0.80;;
41275;SDS011;27010;47.718;12.912;2023-12-04T02:46:57;0.97;;;0.67;;
41275;SDS011;27010;47.718;12.912;2023-12-04T02:49:59;1.90;;;1.20;;
41275;SDS011;27010;47.718;12.912;2023-12-04T02:53:02;1.73;;;1.23;;
41275;SDS011;27010;47.718;12.912;2023-12-04T02:56:05;2.10;;;1.50;;
41275;SDS011;27010;47.718;12.912;2023-12-04T02:59:08;1.27;;;1.00;;
41275;SDS011;27010;47.718;12.912;2023-12-04T03:02:11;1.87;;;1.20;;
41275;SDS011;27010;47.718;12.912;2023-12-04T03:05:14;2.60;;;1.47;;
41275;SDS011;27010;47.718;12.912;2023-12-04T03:08:18;1.87;;;1.40;;
41275;SDS011;27010;47.718;12.912;2023-12-04T03:11:21;1.07;;;0.83;;
41275;SDS011;27010;47.718;12.912;2023-12-04T03:14:23;1.83;;;0.80;;
41275;SDS011;27010;47.718;12.912;2023-12-04T03:17:26;1.90;;;1.03;;
41275;SDS011;27010;47.718;12.912;2023-12-04T03:20:29;0.83;;;0.80;;
41275;SDS011;27010;47.718;12.912;2023-12-04T03:23:31;1.13;;;0.93;;
41275;SDS011;27010;47.718;12.912;2023-12-04T03:26:34;1.33;;;1.00;;
41275;SDS011;27010;47.718;12.912;2023-12-04T03:29:37;1.57;;;1.00;;
41275;SDS011;27010;47.718;12.912;2023-12-04T03:32:40;1.40;;;1.10;;
41275;SDS011;27010;47.718;12.912;2023-12-04T03:35:43;3.30;;;1.60;;
41275;SDS011;27010;47.718;12.912;2023-12-04T03:38:46;1.77;;;1.10;;
41275;SDS011;27010;47.718;12.912;2023-12-04T03:41:51;1.47;;;0.93;;
41275;SDS011;27010;47.718;12.912;2023-12-04T03:44:54;1.50;;;1.10;;
41275;SDS011;27010;47.718;12.912;2023-12-04T03:48:00;1.47;;;1.00;;
41275;SDS011;27010;47.718;12.912;2023-12-04T03:51:03;0.90;;;0.60;;
41275;SDS011;27010;47.718;12.912;2023-12-04T03:54:07;2.07;;;1.20;;
41275;SDS011;27010;47.718;12.912;2023-12-04T03:57:09;1.20;;;1.10;;
41275;SDS011;27010;47.718;12.912;2023-12-04T04:00:14;2.67;;;1.20;;
41275;SDS011;27010;47.718;12.912;2023-12-04T04:03:17;1.87;;;0.83;;
41275;SDS011;27010;47.718;12.912;2023-12-04T04:06:20;0.90;;;0.63;;
41275;SDS011;27010;47.718;12.912;2023-12-04T04:09:23;0.90;;;0.73;;
41275;SDS011;27010;47.718;12.912;2023-12-04T04:12:25;1.00;;;0.67;;
41275;SDS011;27010;47.718;12.912;2023-12-04T04:15:29;0.70;;;0.60;;
41275;SDS011;27010;47.718;12.912;2023-12-04T04:18:31;0.80;;;0.70;;
41275;SDS011;27010;47.718;12.912;2023-12-04T04:21:37;0.97;;;0.87;;
41275;SDS011;27010;47.718;12.912;2023-12-04T04:24:42;0.93;;;0.83;;
41275;SDS011;27010;47.718;12.912;2023-12-04T04:27:44;1.83;;;1.23;;
41275;SDS011;27010;47.718;12.912;2023-12-04T04:30:47;1.63;;;1.37;;
41275;SDS011;27010;47.718;12.912;2023-12-04T04:33:50;1.13;;;1.00;;
41275;SDS011;27010;47.718;12.912;2023-12-04T04:36:53;0.70;;;0.60;;
41275;SDS011;27010;47.718;12.912;2023-12-04T04:39:56;1.40;;;0.90;;
41275;SDS011;27010;47.718;12.912;2023-12-04T04:42:58;1.73;;;0.90;;
41275;SDS011;27010;47.718;12.912;2023-12-04T04:46:01;1.10;;;0.73;;
41275;SDS011;27010;47.718;12.912;2023-12-04T04:49:03;1.77;;;1.27;;
41275;SDS011;27010;47.718;12.912;2023-12-04T04:52:11;1.57;;;1.00;;
41275;SDS011;27010;47.718;12.912;2023-12-04T04:55:14;1.60;;;1.00;;
41275;SDS011;27010;47.718;12.912;2023-12-04T04:58:36;1.23;;;0.80;;
41275;SDS011;27010;47.718;12.912;2023-12-04T05:01:39;1.07;;;0.73;;
41275;SDS011;27010;47.718;12.912;2023-12-04T05:04:42;4.17;;;1.30;;
41275;SDS011;27010;47.718;12.912;2023-12-04T05:07:46;1.83;;;1.07;;
41275;SDS011;27010;47.718;12.912;2023-12-04T05:10:48;0.97;;;0.70;;
41275;SDS011;27010;47.718;12.912;2023-12-04T05:13:51;1.93;;;1.73;;
41275;SDS011;27010;47.718;12.912;2023-12-04T05:16:53;0.50;;;0.50;;
41275;SDS011;27010;47.718;12.912;2023-12-04T05:19:59;2.37;;;1.10;;
41275;SDS011;27010;47.718;12.912;2023-12-04T05:23:05;1.33;;;0.80;;
41275;SDS011;27010;47.718;12.912;2023-12-04T05:26:08;0.87;;;0.70;;
41275;SDS011;27010;47.718;12.912;2023-12-04T05:29:11;1.03;;;0.93;;
41275;SDS011;27010;47.718;12.912;2023-12-04T05:32:15;1.73;;;1.23;;
41275;SDS011;27010;47.718;12.912;2023-12-04T05:35:17;1.20;;;1.03;;
41275;SDS011;27010;47.718;12.912;2023-12-04T05:38:20;1.67;;;1.07;;
41275;SDS011;27010;47.718;12.912;2023-12-04T05:41:23;0.87;;;0.80;;
41275;SDS011;27010;47.718;12.912;2023-12-04T05:44:25;1.00;;;0.77;;
41275;SDS011;27010;47.718;12.912;2023-12-04T05:47:28;1.20;;;0.70;;
41275;SDS011;27010;47.718;12.912;2023-12-04T05:50:30;4.20;;;1.23;;
41275;SDS011;27010;47.718;12.912;2023-12-04T05:53:33;2.00;;;1.00;;
41275;SDS011;27010;47.718;12.912;2023-12-04T05:56:37;7.93;;;3.60;;
41275;SDS011;27010;47.718;12.912;2023-12-04T05:59:39;10.20;;;4.37;;
41275;SDS011;27010;47.718;12.912;2023-12-04T06:02:42;14.47;;;8.50;;
41275;SDS011;27010;47.718;12.912;2023-12-04T06:05:47;10.97;;;6.57;;
41275;SDS011;27010;47.718;12.912;2023-12-04T06:08:54;4.60;;;2.60;;
41275;SDS011;27010;47.718;12.912;2023-12-04T06:11:57;3.77;;;1.70;;
41275;SDS011;27010;47.718;12.912;2023-12-04T06:15:17;2.07;;;1.27;;
41275;SDS011;27010;47.718;12.912;2023-12-04T06:18:20;1.90;;;1.00;;
41275;SDS011;27010;47.718;12.912;2023-12-04T06:21:23;24.60;;;11.50;;
41275;SDS011;27010;47.718;12.912;2023-12-04T06:24:25;7.67;;;5.17;;
41275;SDS011;27010;47.718;12.912;2023-12-04T06:27:28;5.40;;;2.77;;
41275;SDS011;27010;47.718;12.912;2023-12-04T06:30:37;2.77;;;1.70;;
41275;SDS011;27010;47.718;12.912;2023-12-04T06:33:42;2.80;;;1.70;;
41275;SDS011;27010;47.718;12.912;2023-12-04T06:36:48;2.80;;;1.70;;
41275;SDS011;27010;47.718;12.912;2023-12-04T06:39:52;1.67;;;1.27;;
41275;SDS011;27010;47.718;12.912;2023-12-04T06:42:55;1.37;;;0.90;;
41275;SDS011;27010;47.718;12.912;2023-12-04T06:45:58;0.73;;;0.60;;
41275;SDS011;27010;47.718;12.912;2023-12-04T06:49:01;1.30;;;0.97;;
41275;SDS011;27010;47.718;12.912;2023-12-04T06:52:06;1.00;;;0.90;;
41275;SDS011;27010;47.718;12.912;2023-12-04T06:55:09;5.23;;;1.33;;
41275;SDS011;27010;47.718;12.912;2023-12-04T06:58:11;2.07;;;1.20;;
41275;SDS011;27010;47.718;12.912;2023-12-04T07:01:14;1.20;;;0.97;;
41275;SDS011;27010;47.718;12.912;2023-12-04T07:04:17;1.17;;;0.90;;
41275;SDS011;27010;47.718;12.912;2023-12-04T07:07:23;1.13;;;1.00;;
41275;SDS011;27010;47.718;12.912;2023-12-04T07:10:26;1.27;;;0.80;;
41275;SDS011;27010;47.718;12.912;2023-12-04T07:13:28;1.00;;;0.90;;
41275;SDS011;27010;47.718;12.912;2023-12-04T07:16:38;1.23;;;1.07;;
41275;SDS011;27010;47.718;12.912;2023-12-04T07:19:44;2.30;;;0.90;;
41275;SDS011;27010;47.718;12.912;2023-12-04T07:22:47;2.27;;;1.50;;
41275;SDS011;27010;47.718;12.912;2023-12-04T07:25:50;3.27;;;2.20;;
41275;SDS011;27010;47.718;12.912;2023-12-04T07:28:54;3.07;;;1.60;;
41275;SDS011;27010;47.718;12.912;2023-12-04T07:31:57;4.63;;;1.70;;
41275;SDS011;27010;47.718;12.912;2023-12-04T07:35:01;2.67;;;1.57;;
41275;SDS011;27010;47.718;12.912;2023-12-04T07:38:04;1.83;;;1.20;;
41275;SDS011;27010;47.718;12.912;2023-12-04T07:41:07;3.47;;;1.50;;
41275;SDS011;27010;47.718;12.912;2023-12-04T07:44:10;3.47;;;1.20;;
41275;SDS011;27010;47.718;12.912;2023-12-04T07:47:13;1.57;;;0.80;;
41275;SDS011;27010;47.718;12.912;2023-12-04T07:50:17;1.67;;;1.50;;
41275;SDS011;27010;47.718;12.912;2023-12-04T07:53:20;2.30;;;1.50;;
41275;SDS011;27010;47.718;12.912;2023-12-04T07:56:24;2.20;;;1.90;;
41275;SDS011;27010;47.718;12.912;2023-12-04T07:59:28;1.87;;;1.20;;
41275;SDS011;27010;47.718;12.912;2023-12-04T08:02:30;2.00;;;0.90;;
41275;SDS011;27010;47.718;12.912;2023-12-04T08:05:33;1.40;;;0.90;;
41275;SDS011;27010;47.718;12.912;2023-12-04T08:08:35;2.03;;;1.57;;
41275;SDS011;27010;47.718;12.912;2023-12-04T08:11:38;1.67;;;1.23;;
41275;SDS011;27010;47.718;12.912;2023-12-04T08:14:40;2.40;;;1.77;;
41275;SDS011;27010;47.718;12.912;2023-12-04T08:17:43;1.20;;;0.80;;
41275;SDS011;27010;47.718;12.912;2023-12-04T08:20:46;1.07;;;0.90;;
41275;SDS011;27010;47.718;12.912;2023-12-04T08:23:52;1.20;;;1.10;;
41275;SDS011;27010;47.718;12.912;2023-12-04T08:26:56;6.20;;;3.17;;
41275;SDS011;27010;47.718;12.912;2023-12-04T08:29:58;6.20;;;3.20;;
41275;SDS011;27010;47.718;12.912;2023-12-04T08:33:00;2.50;;;2.03;;
41275;SDS011;27010;47.718;12.912;2023-12-04T08:36:03;4.27;;;2.37;;
41275;SDS011;27010;47.718;12.912;2023-12-04T08:39:06;12.17;;;6.67;;
41275;SDS011;27010;47.718;12.912;2023-12-04T08:42:09;12.03;;;5.60;;
41275;SDS011;27010;47.718;12.912;2023-12-04T08:45:21;5.67;;;2.77;;
41275;SDS011;27010;47.718;12.912;2023-12-04T08:48:23;2.67;;;1.50;;
41275;SDS011;27010;47.718;12.912;2023-12-04T08:51:26;9.50;;;3.10;;
41275;SDS011;27010;47.718;12.912;2023-12-04T08:54:28;4.13;;;1.93;;
41275;SDS011;27010;47.718;12.912;2023-12-04T08:57:31;1.63;;;1.13;;
41275;SDS011;27010;47.718;12.912;2023-12-04T09:00:34;2.80;;;1.77;;
41275;SDS011;27010;47.718;12.912;2023-12-04T09:03:39;3.00;;;1.30;;
41275;SDS011;27010;47.718;12.912;2023-12-04T09:06:41;2.00;;;1.20;;
41275;SDS011;27010;47.718;12.912;2023-12-04T09:10:03;1.30;;;1.20;;
41275;SDS011;27010;47.718;12.912;2023-12-04T09:13:14;0.83;;;0.83;;
41275;SDS011;27010;47.718;12.912;2023-12-04T09:16:16;1.83;;;1.27;;
41275;SDS011;27010;47.718;12.912;2023-12-04T09:19:19;2.03;;;1.33;;
41275;SDS011;27010;47.718;12.912;2023-12-04T09:22:21;3.37;;;1.27;;
41275;SDS011;27010;47.718;12.912;2023-12-04T09:25:24;3.60;;;1.33;;
41275;SDS011;27010;47.718;12.912;2023-12-04T09:28:26;1.90;;;1.43;;
41275;SDS011;27010;47.718;12.912;2023-12-04T09:31:28;2.50;;;1.90;;
41275;SDS011;27010;47.718;12.912;2023-12-04T09:34:31;2.77;;;1.70;;
41275;SDS011;27010;47.718;12.912;2023-12-04T09:37:33;2.67;;;1.83;;
41275;SDS011;27010;47.718;12.912;2023-12-04T09:40:36;1.53;;;1.30;;
41275;SDS011;27010;47.718;12.912;2023-12-04T09:43:39;1.33;;;1.10;;
41275;SDS011;27010;47.718;12.912;2023-12-04T09:46:43;1.27;;;1.10;;
41275;SDS011;27010;47.718;12.912;2023-12-04T09:49:46;4.40;;;1.30;;
41275;SDS011;27010;47.718;12.912;2023-12-04T09:52:49;2.27;;;1.70;;
41275;SDS011;27010;47.718;12.912;2023-12-04T09:55:52;1.60;;;1.30;;
41275;SDS011;27010;47.718;12.912;2023-12-04T09:58:58;2.50;;;1.43;;
41275;SDS011;27010;47.718;12.912;2023-12-04T10:02:05;3.17;;;1.60;;
41275;SDS011;27010;47.718;12.912;2023-12-04T10:05:08;1.10;;;0.97;;
41275;SDS011;27010;47.718;12.912;2023-12-04T10:08:11;5.30;;;1.30;;
41275;SDS011;27010;47.718;12.912;2023-12-04T10:11:13;2.03;;;1.40;;
41275;SDS011;27010;47.718;12.912;2023-12-04T10:14:16;1.10;;;0.90;;
41275;SDS011;27010;47.718;12.912;2023-12-04T10:17:19;1.77;;;1.13;;
41275;SDS011;27010;47.718;12.912;2023-12-04T10:20:22;1.70;;;1.10;;
41275;SDS011;27010;47.718;12.912;2023-12-04T10:23:39;1.63;;;1.27;;
41275;SDS011;27010;47.718;12.912;2023-12-04T10:26:51;1.87;;;1.50;;
41275;SDS011;27010;47.718;12.912;2023-12-04T10:29:53;2.90;;;1.53;;
41275;SDS011;27010;47.718;12.912;2023-12-04T10:33:01;1.93;;;1.30;;
41275;SDS011;27010;47.718;12.912;2023-12-04T10:36:04;1.97;;;1.30;;
41275;SDS011;27010;47.718;12.912;2023-12-04T10:39:14;2.00;;;0.87;;
41275;SDS011;27010;47.718;12.912;2023-12-04T10:42:29;2.17;;;1.60;;
41275;SDS011;27010;47.718;12.912;2023-12-04T10:45:38;1.57;;;1.40;;
41275;SDS011;27010;47.718;12.912;2023-12-04T10:48:44;2.67;;;1.30;;
41275;SDS011;27010;47.718;12.912;2023-12-04T10:51:47;2.07;;;1.67;;
41275;SDS011;27010;47.718;12.912;2023-12-04T10:54:49;5.17;;;1.20;;
41275;SDS011;27010;47.718;12.912;2023-12-04T10:57:53;2.40;;;1.20;;
41275;SDS011;27010;47.718;12.912;2023-12-04T11:00:56;1.77;;;1.30;;
41275;SDS011;27010;47.718;12.912;2023-12-04T11:03:58;1.33;;;1.00;;
41275;SDS011;27010;47.718;12.912;2023-12-04T11:07:02;5.03;;;2.60;;
41275;SDS011;27010;47.718;12.912;2023-12-04T11:10:07;4.50;;;3.20;;
41275;SDS011;27010;47.718;12.912;2023-12-04T11:13:21;7.87;;;3.57;;
41275;SDS011;27010;47.718;12.912;2023-12-04T11:22:56;3.03;;;1.50;;
41275;SDS011;27010;47.718;12.912;2023-12-04T11:25:58;1.70;;;1.33;;
41275;SDS011;27010;47.718;12.912;2023-12-04T11:29:01;2.37;;;1.43;;
41275;SDS011;27010;47.718;12.912;2023-12-04T11:32:07;2.53;;;1.87;;
41275;SDS011;27010;47.718;12.912;2023-12-04T11:35:12;2.30;;;1.70;;
41275;SDS011;27010;47.718;12.912;2023-12-04T11:38:16;2.87;;;2.20;;
41275;SDS011;27010;47.718;12.912;2023-12-04T11:41:19;2.67;;;1.90;;
41275;SDS011;27010;47.718;12.912;2023-12-04T11:44:27;2.73;;;2.03;;
41275;SDS011;27010;47.718;12.912;2023-12-04T11:50:59;5.13;;;3.20;;
41275;SDS011;27010;47.718;12.912;2023-12-04T11:54:02;6.13;;;3.60;;
41275;SDS011;27010;47.718;12.912;2023-12-04T12:00:13;4.57;;;2.30;;
41275;SDS011;27010;47.718;12.912;2023-12-04T12:03:21;3.40;;;2.33;;
41275;SDS011;27010;47.718;12.912;2023-12-04T12:06:24;3.73;;;2.50;;
41275;SDS011;27010;47.718;12.912;2023-12-04T12:09:27;9.03;;;3.47;;
41275;SDS011;27010;47.718;12.912;2023-12-04T12:12:31;7.90;;;4.57;;
41275;SDS011;27010;47.718;12.912;2023-12-04T12:15:37;5.47;;;3.37;;
41275;SDS011;27010;47.718;12.912;2023-12-04T12:18:40;6.07;;;2.97;;
41275;SDS011;27010;47.718;12.912;2023-12-04T12:21:43;5.90;;;2.97;;
41275;SDS011;27010;47.718;12.912;2023-12-04T12:24:45;6.93;;;3.73;;
41275;SDS011;27010;47.718;12.912;2023-12-04T12:27:47;6.37;;;4.63;;
41275;SDS011;27010;47.718;12.912;2023-12-04T12:30:50;8.30;;;5.23;;
41275;SDS011;27010;47.718;12.912;2023-12-04T12:33:55;8.73;;;5.00;;
41275;SDS011;27010;47.718;12.912;2023-12-04T12:36:59;10.23;;;5.30;;
41275;SDS011;27010;47.718;12.912;2023-12-04T12:40:01;7.97;;;5.40;;
41275;SDS011;27010;47.718;12.912;2023-12-04T12:43:08;9.80;;;5.37;;
41275;SDS011;27010;47.718;12.912;2023-12-04T12:46:11;10.60;;;5.60;;
41275;SDS011;27010;47.718;12.912;2023-12-04T12:49:17;9.60;;;5.70;;
41275;SDS011;27010;47.718;12.912;2023-12-04T12:52:37;9.13;;;5.47;;
41275;SDS011;27010;47.718;12.912;2023-12-04T12:55:40;9.23;;;4.70;;
41275;SDS011;27010;47.718;12.912;2023-12-04T12:58:43;9.73;;;5.33;;
41275;SDS011;27010;47.718;12.912;2023-12-04T13:01:47;9.77;;;5.73;;
41275;SDS011;27010;47.718;12.912;2023-12-04T13:04:50;11.13;;;5.27;;
41275;SDS011;27010;47.718;12.912;2023-12-04T13:07:53;9.73;;;6.10;;
41275;SDS011;27010;47.718;12.912;2023-12-04T13:10:57;16.87;;;7.33;;
41275;SDS011;27010;47.718;12.912;2023-12-04T13:13:59;11.90;;;6.67;;
41275;SDS011;27010;47.718;12.912;2023-12-04T13:17:01;7.53;;;5.43;;
41275;SDS011;27010;47.718;12.912;2023-12-04T13:20:05;7.03;;;4.93;;
41275;SDS011;27010;47.718;12.912;2023-12-04T13:23:11;11.67;;;7.10;;
41275;SDS011;27010;47.718;12.912;2023-12-04T13:26:16;9.87;;;6.73;;
41275;SDS011;27010;47.718;12.912;2023-12-04T13:29:20;10.33;;;6.10;;
41275;SDS011;27010;47.718;12.912;2023-12-04T13:32:23;10.47;;;7.13;;
41275;SDS011;27010;47.718;12.912;2023-12-04T13:35:25;9.60;;;5.73;;
41275;SDS011;27010;47.718;12.912;2023-12-04T13:38:27;7.63;;;5.20;;
41275;SDS011;27010;47.718;12.912;2023-12-04T13:41:37;11.60;;;5.97;;
41275;SDS011;27010;47.718;12.912;2023-12-04T13:44:59;8.40;;;5.00;;
41275;SDS011;27010;47.718;12.912;2023-12-04T13:48:03;8.77;;;4.97;;
41275;SDS011;27010;47.718;12.912;2023-12-04T13:51:09;6.87;;;4.33;;
41275;SDS011;27010;47.718;12.912;2023-12-04T13:54:11;6.73;;;4.70;;
41275;SDS011;27010;47.718;12.912;2023-12-04T13:57:36;6.90;;;4.70;;
41275;SDS011;27010;47.718;12.912;2023-12-04T14:00:48;8.50;;;4.03;;
41275;SDS011;27010;47.718;12.912;2023-12-04T14:03:50;6.43;;;4.13;;
41275;SDS011;27010;47.718;12.912;2023-12-04T14:06:54;6.37;;;4.80;;
41275;SDS011;27010;47.718;12.912;2023-12-04T14:10:01;15.30;;;7.83;;
41275;SDS011;27010;47.718;12.912;2023-12-04T14:13:03;9.90;;;6.27;;
41275;SDS011;27010;47.718;12.912;2023-12-04T14:16:06;9.07;;;5.97;;
41275;SDS011;27010;47.718;12.912;2023-12-04T14:19:09;8.77;;;5.60;;
41275;SDS011;27010;47.718;12.912;2023-12-04T14:22:11;8.80;;;5.27;;
41275;SDS011;27010;47.718;12.912;2023-12-04T14:25:13;7.83;;;5.07;;
41275;SDS011;27010;47.718;12.912;2023-12-04T14:28:16;6.10;;;4.30;;
41275;SDS011;27010;47.718;12.912;2023-12-04T14:31:29;7.87;;;4.43;;
41275;SDS011;27010;47.718;12.912;2023-12-04T14:34:32;6.63;;;4.33;;
41275;SDS011;27010;47.718;12.912;2023-12-04T14:37:34;8.30;;;4.83;;
41275;SDS011;27010;47.718;12.912;2023-12-04T14:40:37;9.07;;;4.27;;
41275;SDS011;27010;47.718;12.912;2023-12-04T14:43:40;7.70;;;4.67;;
41275;SDS011;27010;47.718;12.912;2023-12-04T14:46:45;7.67;;;4.30;;
41275;SDS011;27010;47.718;12.912;2023-12-04T14:49:47;9.50;;;6.77;;
41275;SDS011;27010;47.718;12.912;2023-12-04T14:52:55;9.73;;;6.67;;
41275;SDS011;27010;47.718;12.912;2023-12-04T14:55:58;11.43;;;7.57;;
41275;SDS011;27010;47.718;12.912;2023-12-04T14:59:19;14.67;;;8.77;;
41275;SDS011;27010;47.718;12.912;2023-12-04T15:02:45;14.70;;;8.73;;
41275;SDS011;27010;47.718;12.912;2023-12-04T15:05:48;12.50;;;8.13;;
41275;SDS011;27010;47.718;12.912;2023-12-04T15:09:08;12.60;;;7.90;;
41275;SDS011;27010;47.718;12.912;2023-12-04T15:12:40;12.90;;;9.13;;
41275;SDS011;27010;47.718;12.912;2023-12-04T15:15:42;11.83;;;10.57;;
41275;SDS011;27010;47.718;12.912;2023-12-04T15:19:03;8.17;;;6.67;;
41275;SDS011;27010;47.718;12.912;2023-12-04T15:22:08;10.93;;;5.43;;
41275;SDS011;27010;47.718;12.912;2023-12-04T15:25:10;13.17;;;6.10;;
41275;SDS011;27010;47.718;12.912;2023-12-04T15:28:13;7.17;;;4.30;;
41275;SDS011;27010;47.718;12.912;2023-12-04T15:31:15;11.00;;;3.80;;
41275;SDS011;27010;47.718;12.912;2023-12-04T15:34:18;6.30;;;2.77;;
41275;SDS011;27010;47.718;12.912;2023-12-04T15:37:24;5.30;;;3.17;;
41275;SDS011;27010;47.718;12.912;2023-12-04T15:40:28;5.20;;;3.20;;
41275;SDS011;27010;47.718;12.912;2023-12-04T15:43:31;4.93;;;3.27;;
41275;SDS011;27010;47.718;12.912;2023-12-04T15:46:34;6.47;;;4.00;;
41275;SDS011;27010;47.718;12.912;2023-12-04T15:49:36;7.60;;;4.57;;
41275;SDS011;27010;47.718;12.912;2023-12-04T15:52:38;5.60;;;3.60;;
41275;SDS011;27010;47.718;12.912;2023-12-04T15:55:43;3.37;;;2.60;;
41275;SDS011;27010;47.718;12.912;2023-12-04T15:58:45;7.00;;;3.53;;
41275;SDS011;27010;47.718;12.912;2023-12-04T16:01:49;4.27;;;3.07;;
41275;SDS011;27010;47.718;12.912;2023-12-04T16:04:51;4.87;;;3.10;;
41275;SDS011;27010;47.718;12.912;2023-12-04T16:07:54;5.00;;;3.10;;
41275;SDS011;27010;47.718;12.912;2023-12-04T16:10:56;5.80;;;2.40;;
41275;SDS011;27010;47.718;12.912;2023-12-04T16:13:58;3.80;;;2.33;;
41275;SDS011;27010;47.718;12.912;2023-12-04T16:17:00;7.20;;;4.13;;
41275;SDS011;27010;47.718;12.912;2023-12-04T16:20:03;6.83;;;4.70;;
41275;SDS011;27010;47.718;12.912;2023-12-04T16:23:07;6.63;;;4.00;;
41275;SDS011;27010;47.718;12.912;2023-12-04T16:26:10;5.83;;;4.07;;
41275;SDS011;27010;47.718;12.912;2023-12-04T16:29:12;7.00;;;4.60;;
41275;SDS011;27010;47.718;12.912;2023-12-04T16:32:14;5.53;;;3.80;;
41275;SDS011;27010;47.718;12.912;2023-12-04T16:35:16;6.17;;;3.83;;
41275;SDS011;27010;47.718;12.912;2023-12-04T16:38:20;3.27;;;2.43;;
41275;SDS011;27010;47.718;12.912;2023-12-04T16:41:22;4.10;;;2.83;;
41275;SDS011;27010;47.718;12.912;2023-12-04T16:44:24;4.23;;;2.80;;
41275;SDS011;27010;47.718;12.912;2023-12-04T16:47:29;4.97;;;3.23;;
41275;SDS011;27010;47.718;12.912;2023-12-04T16:50:33;5.43;;;3.20;;
41275;SDS011;27010;47.718;12.912;2023-12-04T16:53:37;5.33;;;2.70;;
41275;SDS011;27010;47.718;12.912;2023-12-04T16:56:40;6.87;;;3.17;;
41275;SDS011;27010;47.718;12.912;2023-12-04T16:59:42;8.67;;;5.33;;
41275;SDS011;27010;47.718;12.912;2023-12-04T17:02:45;8.87;;;5.50;;
41275;SDS011;27010;47.718;12.912;2023-12-04T17:05:47;6.43;;;4.50;;
41275;SDS011;27010;47.718;12.912;2023-12-04T17:08:52;5.00;;;3.57;;
41275;SDS011;27010;47.718;12.912;2023-12-04T17:11:55;5.37;;;3.13;;
41275;SDS011;27010;47.718;12.912;2023-12-04T17:14:57;6.43;;;3.40;;
41275;SDS011;27010;47.718;12.912;2023-12-04T17:17:59;5.43;;;3.57;;
41275;SDS011;27010;47.718;12.912;2023-12-04T17:21:02;82.17;;;31.43;;
41275;SDS011;27010;47.718;12.912;2023-12-04T17:24:05;136.00;;;45.53;;
41275;SDS011;27010;47.718;12.912;2023-12-04T17:27:07;116.47;;;38.83;;
41275;SDS011;27010;47.718;12.912;2023-12-04T17:30:10;122.63;;;40.07;;
41275;SDS011;27010;47.718;12.912;2023-12-04T17:33:13;19.77;;;8.40;;
41275;SDS011;27010;47.718;12.912;2023-12-04T17:36:15;7.07;;;3.73;;
41275;SDS011;27010;47.718;12.912;2023-12-04T17:39:17;36.07;;;25.63;;
41275;SDS011;27010;47.718;12.912;2023-12-04T17:42:19;14.17;;;7.70;;
41275;SDS011;27010;47.718;12.912;2023-12-04T17:45:23;85.33;;;34.43;;
41275;SDS011;27010;47.718;12.912;2023-12-04T17:48:25;48.87;;;23.13;;
41275;SDS011;27010;47.718;12.912;2023-12-04T17:51:28;77.20;;;34.03;;
41275;SDS011;27010;47.718;12.912;2023-12-04T17:54:30;111.07;;;41.93;;
41275;SDS011;27010;47.718;12.912;2023-12-04T17:57:33;34.70;;;16.37;;
41275;SDS011;27010;47.718;12.912;2023-12-04T18:00:37;18.13;;;8.43;;
41275;SDS011;27010;47.718;12.912;2023-12-04T18:03:39;48.37;;;23.30;;
41275;SDS011;27010;47.718;12.912;2023-12-04T18:06:41;23.20;;;12.43;;
41275;SDS011;27010;47.718;12.912;2023-12-04T18:09:44;17.80;;;12.00;;
41275;SDS011;27010;47.718;12.912;2023-12-04T18:12:46;6.83;;;4.50;;
41275;SDS011;27010;47.718;12.912;2023-12-04T18:15:49;4.20;;;2.80;;
41275;SDS011;27010;47.718;12.912;2023-12-04T18:18:51;4.70;;;3.17;;
41275;SDS011;27010;47.718;12.912;2023-12-04T18:21:54;2.53;;;1.80;;
41275;SDS011;27010;47.718;12.912;2023-12-04T18:24:57;3.57;;;2.37;;